sensor_id;sensor_type;location;lat;lon;timestamp;P1;durP1;ratioP1;P2;durP2;ratioP2
43628;SDS011;56545;48.224;11.678;2023-07-29T00:00:43;6.50;;;3.15;;
43628;SDS011;56545;48.224;11.678;2023-07-29T00:03:09;6.25;;;2.75;;
43628;SDS011;56545;48.224;11.678;2023-07-29T00:05:36;5.50;;;2.78;;
43628;SDS011;56545;48.224;11.678;2023-07-29T00:08:02;5.97;;;2.83;;
43628;SDS011;56545;48.224;11.678;2023-07-29T00:10:30;7.00;;;2.63;;
43628;SDS011;56545;48.224;11.678;2023-07-29T00:12:57;5.82;;;2.78;;
43628;SDS011;56545;48.224;11.678;2023-07-29T00:15:23;7.50;;;3.10;;
43628;SDS011;56545;48.224;11.678;2023-07-29T00:17:49;5.43;;;2.80;;
43628;SDS011;56545;48.224;11.678;2023-07-29T00:20:15;5.55;;;3.03;;
43628;SDS011;56545;48.224;11.678;2023-07-29T00:22:41;5.25;;;2.92;;
43628;SDS011;56545;48.224;11.678;2023-07-29T00:25:07;10.73;;;5.85;;
43628;SDS011;56545;48.224;11.678;2023-07-29T00:27:33;18.50;;;11.02;;
43628;SDS011;56545;48.224;11.678;2023-07-29T00:29:59;39.25;;;23.13;;
43628;SDS011;56545;48.224;11.678;2023-07-29T00:32:27;37.58;;;22.50;;
43628;SDS011;56545;48.224;11.678;2023-07-29T00:34:54;36.97;;;21.00;;
43628;SDS011;56545;48.224;11.678;2023-07-29T00:37:20;57.33;;;34.15;;
43628;SDS011;56545;48.224;11.678;2023-07-29T00:39:46;66.38;;;41.85;;
43628;SDS011;56545;48.224;11.678;2023-07-29T00:42:11;62.33;;;40.97;;
43628;SDS011;56545;48.224;11.678;2023-07-29T00:44:37;36.53;;;25.63;;
43628;SDS011;56545;48.224;11.678;2023-07-29T00:47:03;26.73;;;17.50;;
43628;SDS011;56545;48.224;11.678;2023-07-29T00:49:31;16.02;;;10.05;;
43628;SDS011;56545;48.224;11.678;2023-07-29T00:51:57;18.50;;;10.80;;
43628;SDS011;56545;48.224;11.678;2023-07-29T00:54:23;13.57;;;8.00;;
43628;SDS011;56545;48.224;11.678;2023-07-29T00:56:49;11.10;;;6.88;;
43628;SDS011;56545;48.224;11.678;2023-07-29T00:59:15;9.02;;;4.85;;
43628;SDS011;56545;48.224;11.678;2023-07-29T01:01:41;6.97;;;3.75;;
43628;SDS011;56545;48.224;11.678;2023-07-29T01:04:08;5.65;;;3.10;;
43628;SDS011;56545;48.224;11.678;2023-07-29T01:06:41;6.63;;;3.30;;
43628;SDS011;56545;48.224;11.678;2023-07-29T01:12:09;8.82;;;3.50;;
43628;SDS011;56545;48.224;11.678;2023-07-29T01:17:20;5.60;;;2.75;;
43628;SDS011;56545;48.224;11.678;2023-07-29T01:22:36;5.97;;;2.70;;
43628;SDS011;56545;48.224;11.678;2023-07-29T01:25:02;6.10;;;2.92;;
43628;SDS011;56545;48.224;11.678;2023-07-29T01:27:29;6.30;;;3.03;;
43628;SDS011;56545;48.224;11.678;2023-07-29T01:29:56;6.15;;;2.72;;
43628;SDS011;56545;48.224;11.678;2023-07-29T01:32:28;4.93;;;2.33;;
43628;SDS011;56545;48.224;11.678;2023-07-29T01:38:09;4.93;;;2.65;;
43628;SDS011;56545;48.224;11.678;2023-07-29T01:40:39;6.30;;;2.75;;
43628;SDS011;56545;48.224;11.678;2023-07-29T01:43:06;5.95;;;2.40;;
43628;SDS011;56545;48.224;11.678;2023-07-29T01:45:35;5.50;;;2.33;;
43628;SDS011;56545;48.224;11.678;2023-07-29T01:48:05;5.28;;;2.80;;
43628;SDS011;56545;48.224;11.678;2023-07-29T01:50:31;5.90;;;2.70;;
43628;SDS011;56545;48.224;11.678;2023-07-29T01:52:57;5.38;;;2.65;;
43628;SDS011;56545;48.224;11.678;2023-07-29T01:55:23;5.80;;;2.70;;
43628;SDS011;56545;48.224;11.678;2023-07-29T01:57:49;4.43;;;2.35;;
43628;SDS011;56545;48.224;11.678;2023-07-29T02:00:16;5.90;;;2.80;;
43628;SDS011;56545;48.224;11.678;2023-07-29T02:02:43;6.93;;;2.50;;
43628;SDS011;56545;48.224;11.678;2023-07-29T02:05:09;4.45;;;2.33;;
43628;SDS011;56545;48.224;11.678;2023-07-29T02:07:35;5.30;;;2.53;;
43628;SDS011;56545;48.224;11.678;2023-07-29T02:10:01;4.50;;;2.47;;
43628;SDS011;56545;48.224;11.678;2023-07-29T02:12:27;5.03;;;2.45;;
43628;SDS011;56545;48.224;11.678;2023-07-29T02:14:53;5.18;;;2.72;;
43628;SDS011;56545;48.224;11.678;2023-07-29T02:17:19;5.30;;;2.30;;
43628;SDS011;56545;48.224;11.678;2023-07-29T02:19:45;4.90;;;2.55;;
43628;SDS011;56545;48.224;11.678;2023-07-29T02:22:13;5.55;;;2.60;;
43628;SDS011;56545;48.224;11.678;2023-07-29T02:24:39;5.82;;;2.53;;
43628;SDS011;56545;48.224;11.678;2023-07-29T02:27:05;7.28;;;2.40;;
43628;SDS011;56545;48.224;11.678;2023-07-29T02:29:31;5.13;;;2.47;;
43628;SDS011;56545;48.224;11.678;2023-07-29T02:31:58;5.82;;;2.40;;
43628;SDS011;56545;48.224;11.678;2023-07-29T02:34:24;4.30;;;2.25;;
43628;SDS011;56545;48.224;11.678;2023-07-29T02:36:50;4.70;;;2.42;;
43628;SDS011;56545;48.224;11.678;2023-07-29T02:39:16;7.15;;;2.20;;
43628;SDS011;56545;48.224;11.678;2023-07-29T02:41:42;4.20;;;2.50;;
43628;SDS011;56545;48.224;11.678;2023-07-29T02:44:08;4.47;;;2.38;;
43628;SDS011;56545;48.224;11.678;2023-07-29T02:46:34;5.30;;;2.28;;
43628;SDS011;56545;48.224;11.678;2023-07-29T02:49:01;4.30;;;2.35;;
43628;SDS011;56545;48.224;11.678;2023-07-29T02:51:28;6.13;;;2.50;;
43628;SDS011;56545;48.224;11.678;2023-07-29T02:53:54;6.47;;;2.35;;
43628;SDS011;56545;48.224;11.678;2023-07-29T02:56:21;4.60;;;2.35;;
43628;SDS011;56545;48.224;11.678;2023-07-29T02:58:47;5.75;;;2.72;;
43628;SDS011;56545;48.224;11.678;2023-07-29T03:01:13;6.50;;;2.38;;
43628;SDS011;56545;48.224;11.678;2023-07-29T03:03:39;5.45;;;2.38;;
43628;SDS011;56545;48.224;11.678;2023-07-29T03:06:06;6.85;;;2.45;;
43628;SDS011;56545;48.224;11.678;2023-07-29T03:08:33;6.95;;;2.80;;
43628;SDS011;56545;48.224;11.678;2023-07-29T03:11:04;6.47;;;2.47;;
43628;SDS011;56545;48.224;11.678;2023-07-29T03:13:34;4.93;;;2.33;;
43628;SDS011;56545;48.224;11.678;2023-07-29T03:16:07;5.82;;;2.63;;
43628;SDS011;56545;48.224;11.678;2023-07-29T03:18:36;4.93;;;2.40;;
43628;SDS011;56545;48.224;11.678;2023-07-29T03:21:03;4.90;;;2.30;;
43628;SDS011;56545;48.224;11.678;2023-07-29T03:23:29;5.00;;;2.45;;
43628;SDS011;56545;48.224;11.678;2023-07-29T03:25:56;4.28;;;2.22;;
43628;SDS011;56545;48.224;11.678;2023-07-29T03:28:27;5.65;;;2.50;;
43628;SDS011;56545;48.224;11.678;2023-07-29T03:30:54;5.25;;;2.25;;
43628;SDS011;56545;48.224;11.678;2023-07-29T03:33:21;5.68;;;2.58;;
43628;SDS011;56545;48.224;11.678;2023-07-29T03:35:47;5.60;;;2.58;;
43628;SDS011;56545;48.224;11.678;2023-07-29T03:38:14;5.43;;;2.53;;
43628;SDS011;56545;48.224;11.678;2023-07-29T03:40:40;4.68;;;2.42;;
43628;SDS011;56545;48.224;11.678;2023-07-29T03:43:07;6.30;;;2.30;;
43628;SDS011;56545;48.224;11.678;2023-07-29T03:45:33;6.13;;;2.42;;
43628;SDS011;56545;48.224;11.678;2023-07-29T03:48:00;4.70;;;2.50;;
43628;SDS011;56545;48.224;11.678;2023-07-29T03:50:27;5.78;;;2.22;;
43628;SDS011;56545;48.224;11.678;2023-07-29T03:52:54;6.68;;;2.38;;
43628;SDS011;56545;48.224;11.678;2023-07-29T03:55:20;4.63;;;2.15;;
43628;SDS011;56545;48.224;11.678;2023-07-29T03:57:46;6.65;;;2.50;;
43628;SDS011;56545;48.224;11.678;2023-07-29T04:00:12;6.47;;;2.40;;
43628;SDS011;56545;48.224;11.678;2023-07-29T04:02:38;6.13;;;2.35;;
43628;SDS011;56545;48.224;11.678;2023-07-29T04:05:05;5.28;;;2.20;;
43628;SDS011;56545;48.224;11.678;2023-07-29T04:07:33;4.30;;;2.20;;
43628;SDS011;56545;48.224;11.678;2023-07-29T04:09:59;4.43;;;2.13;;
43628;SDS011;56545;48.224;11.678;2023-07-29T04:12:26;5.03;;;2.20;;
43628;SDS011;56545;48.224;11.678;2023-07-29T04:14:52;4.82;;;2.42;;
43628;SDS011;56545;48.224;11.678;2023-07-29T04:17:18;4.38;;;2.15;;
43628;SDS011;56545;48.224;11.678;2023-07-29T04:19:44;4.53;;;2.13;;
43628;SDS011;56545;48.224;11.678;2023-07-29T04:22:10;5.35;;;1.95;;
43628;SDS011;56545;48.224;11.678;2023-07-29T04:24:35;4.50;;;2.10;;
43628;SDS011;56545;48.224;11.678;2023-07-29T04:27:03;4.97;;;2.38;;
43628;SDS011;56545;48.224;11.678;2023-07-29T04:29:29;4.32;;;2.20;;
43628;SDS011;56545;48.224;11.678;2023-07-29T04:31:55;5.03;;;2.15;;
43628;SDS011;56545;48.224;11.678;2023-07-29T04:34:21;4.10;;;1.90;;
43628;SDS011;56545;48.224;11.678;2023-07-29T04:36:47;6.30;;;2.10;;
43628;SDS011;56545;48.224;11.678;2023-07-29T04:39:13;4.70;;;2.03;;
43628;SDS011;56545;48.224;11.678;2023-07-29T04:41:40;4.70;;;2.20;;
43628;SDS011;56545;48.224;11.678;2023-07-29T04:44:06;4.85;;;2.00;;
43628;SDS011;56545;48.224;11.678;2023-07-29T04:46:32;4.88;;;2.00;;
43628;SDS011;56545;48.224;11.678;2023-07-29T04:48:58;5.18;;;2.00;;
43628;SDS011;56545;48.224;11.678;2023-07-29T04:51:24;4.70;;;2.10;;
43628;SDS011;56545;48.224;11.678;2023-07-29T04:53:50;4.15;;;2.00;;
43628;SDS011;56545;48.224;11.678;2023-07-29T04:56:16;3.85;;;2.00;;
43628;SDS011;56545;48.224;11.678;2023-07-29T04:58:42;3.42;;;1.80;;
43628;SDS011;56545;48.224;11.678;2023-07-29T05:01:08;3.88;;;1.80;;
43628;SDS011;56545;48.224;11.678;2023-07-29T05:03:34;4.55;;;1.85;;
43628;SDS011;56545;48.224;11.678;2023-07-29T05:06:00;5.75;;;2.15;;
43628;SDS011;56545;48.224;11.678;2023-07-29T05:08:26;6.43;;;2.10;;
43628;SDS011;56545;48.224;11.678;2023-07-29T05:10:52;6.72;;;2.40;;
43628;SDS011;56545;48.224;11.678;2023-07-29T05:13:19;4.43;;;2.00;;
43628;SDS011;56545;48.224;11.678;2023-07-29T05:15:46;5.35;;;1.90;;
43628;SDS011;56545;48.224;11.678;2023-07-29T05:18:13;3.97;;;1.92;;
43628;SDS011;56545;48.224;11.678;2023-07-29T05:20:39;6.18;;;1.90;;
43628;SDS011;56545;48.224;11.678;2023-07-29T05:23:05;5.10;;;2.13;;
43628;SDS011;56545;48.224;11.678;2023-07-29T05:25:31;4.15;;;1.75;;
43628;SDS011;56545;48.224;11.678;2023-07-29T05:27:59;5.40;;;1.88;;
43628;SDS011;56545;48.224;11.678;2023-07-29T05:30:26;6.45;;;2.00;;
43628;SDS011;56545;48.224;11.678;2023-07-29T05:32:55;3.47;;;1.92;;
43628;SDS011;56545;48.224;11.678;2023-07-29T05:35:22;3.65;;;2.00;;
43628;SDS011;56545;48.224;11.678;2023-07-29T05:37:48;4.25;;;1.90;;
43628;SDS011;56545;48.224;11.678;2023-07-29T05:40:14;3.55;;;1.90;;
43628;SDS011;56545;48.224;11.678;2023-07-29T05:42:40;5.20;;;2.20;;
43628;SDS011;56545;48.224;11.678;2023-07-29T05:45:06;4.97;;;1.88;;
43628;SDS011;56545;48.224;11.678;2023-07-29T05:47:33;3.92;;;1.77;;
43628;SDS011;56545;48.224;11.678;2023-07-29T05:49:58;4.82;;;1.88;;
43628;SDS011;56545;48.224;11.678;2023-07-29T05:52:29;4.20;;;1.90;;
43628;SDS011;56545;48.224;11.678;2023-07-29T05:54:55;3.95;;;1.90;;
43628;SDS011;56545;48.224;11.678;2023-07-29T05:57:21;4.82;;;2.60;;
43628;SDS011;56545;48.224;11.678;2023-07-29T05:59:47;7.07;;;2.10;;
43628;SDS011;56545;48.224;11.678;2023-07-29T06:02:13;5.50;;;2.30;;
43628;SDS011;56545;48.224;11.678;2023-07-29T06:04:39;3.72;;;1.92;;
43628;SDS011;56545;48.224;11.678;2023-07-29T06:07:05;3.97;;;2.00;;
43628;SDS011;56545;48.224;11.678;2023-07-29T06:09:31;4.78;;;1.92;;
43628;SDS011;56545;48.224;11.678;2023-07-29T06:11:58;3.25;;;1.75;;
43628;SDS011;56545;48.224;11.678;2023-07-29T06:14:23;4.32;;;1.75;;
43628;SDS011;56545;48.224;11.678;2023-07-29T06:16:49;4.47;;;1.75;;
43628;SDS011;56545;48.224;11.678;2023-07-29T06:19:15;5.25;;;1.88;;
43628;SDS011;56545;48.224;11.678;2023-07-29T06:21:42;3.60;;;1.60;;
43628;SDS011;56545;48.224;11.678;2023-07-29T06:24:09;3.35;;;1.50;;
43628;SDS011;56545;48.224;11.678;2023-07-29T06:26:35;2.60;;;1.40;;
43628;SDS011;56545;48.224;11.678;2023-07-29T06:29:00;3.17;;;1.48;;
43628;SDS011;56545;48.224;11.678;2023-07-29T06:31:26;4.97;;;1.60;;
43628;SDS011;56545;48.224;11.678;2023-07-29T06:33:52;7.20;;;1.70;;
43628;SDS011;56545;48.224;11.678;2023-07-29T06:36:19;4.60;;;1.65;;
43628;SDS011;56545;48.224;11.678;2023-07-29T06:38:45;3.47;;;1.75;;
43628;SDS011;56545;48.224;11.678;2023-07-29T06:41:11;2.75;;;1.40;;
43628;SDS011;56545;48.224;11.678;2023-07-29T06:43:37;3.17;;;1.60;;
43628;SDS011;56545;48.224;11.678;2023-07-29T06:46:03;3.58;;;1.50;;
43628;SDS011;56545;48.224;11.678;2023-07-29T06:48:29;4.15;;;1.45;;
43628;SDS011;56545;48.224;11.678;2023-07-29T06:50:55;3.55;;;1.33;;
43628;SDS011;56545;48.224;11.678;2023-07-29T06:53:25;3.08;;;1.50;;
43628;SDS011;56545;48.224;11.678;2023-07-29T06:55:51;3.28;;;1.50;;
43628;SDS011;56545;48.224;11.678;2023-07-29T06:58:17;3.30;;;1.60;;
43628;SDS011;56545;48.224;11.678;2023-07-29T07:00:43;2.92;;;1.50;;
43628;SDS011;56545;48.224;11.678;2023-07-29T07:03:09;3.40;;;1.50;;
43628;SDS011;56545;48.224;11.678;2023-07-29T07:05:35;3.67;;;1.85;;
43628;SDS011;56545;48.224;11.678;2023-07-29T07:08:01;3.20;;;1.60;;
43628;SDS011;56545;48.224;11.678;2023-07-29T07:10:27;4.38;;;1.67;;
43628;SDS011;56545;48.224;11.678;2023-07-29T07:12:53;6.03;;;2.00;;
43628;SDS011;56545;48.224;11.678;2023-07-29T07:15:19;6.95;;;2.20;;
43628;SDS011;56545;48.224;11.678;2023-07-29T07:17:45;4.70;;;1.90;;
43628;SDS011;56545;48.224;11.678;2023-07-29T07:20:11;4.88;;;2.00;;
43628;SDS011;56545;48.224;11.678;2023-07-29T07:22:37;6.05;;;2.50;;
43628;SDS011;56545;48.224;11.678;2023-07-29T07:25:04;5.28;;;2.00;;
43628;SDS011;56545;48.224;11.678;2023-07-29T07:27:30;5.03;;;2.00;;
43628;SDS011;56545;48.224;11.678;2023-07-29T07:29:56;5.10;;;2.38;;
43628;SDS011;56545;48.224;11.678;2023-07-29T07:32:22;9.15;;;6.35;;
43628;SDS011;56545;48.224;11.678;2023-07-29T07:34:48;5.75;;;2.65;;
43628;SDS011;56545;48.224;11.678;2023-07-29T07:37:13;5.10;;;2.15;;
43628;SDS011;56545;48.224;11.678;2023-07-29T07:39:40;5.82;;;2.40;;
43628;SDS011;56545;48.224;11.678;2023-07-29T07:42:06;5.32;;;2.30;;
43628;SDS011;56545;48.224;11.678;2023-07-29T07:44:32;6.13;;;2.20;;
43628;SDS011;56545;48.224;11.678;2023-07-29T07:46:58;3.97;;;2.13;;
43628;SDS011;56545;48.224;11.678;2023-07-29T07:49:24;5.13;;;2.40;;
43628;SDS011;56545;48.224;11.678;2023-07-29T07:51:50;7.70;;;2.47;;
43628;SDS011;56545;48.224;11.678;2023-07-29T07:54:16;6.00;;;2.20;;
43628;SDS011;56545;48.224;11.678;2023-07-29T07:56:42;4.47;;;2.10;;
43628;SDS011;56545;48.224;11.678;2023-07-29T07:59:08;5.82;;;2.38;;
43628;SDS011;56545;48.224;11.678;2023-07-29T08:01:35;5.38;;;1.98;;
43628;SDS011;56545;48.224;11.678;2023-07-29T08:04:01;5.32;;;2.20;;
43628;SDS011;56545;48.224;11.678;2023-07-29T08:06:28;4.22;;;2.10;;
43628;SDS011;56545;48.224;11.678;2023-07-29T08:08:54;6.32;;;2.30;;
43628;SDS011;56545;48.224;11.678;2023-07-29T08:11:20;3.67;;;1.92;;
43628;SDS011;56545;48.224;11.678;2023-07-29T08:13:46;3.50;;;2.08;;
43628;SDS011;56545;48.224;11.678;2023-07-29T08:16:12;5.22;;;2.50;;
43628;SDS011;56545;48.224;11.678;2023-07-29T08:18:38;4.78;;;2.08;;
43628;SDS011;56545;48.224;11.678;2023-07-29T08:21:04;6.70;;;2.15;;
43628;SDS011;56545;48.224;11.678;2023-07-29T08:23:30;4.10;;;2.00;;
43628;SDS011;56545;48.224;11.678;2023-07-29T08:25:58;4.43;;;2.40;;
43628;SDS011;56545;48.224;11.678;2023-07-29T08:28:30;4.05;;;2.10;;
43628;SDS011;56545;48.224;11.678;2023-07-29T08:30:57;4.07;;;2.10;;
43628;SDS011;56545;48.224;11.678;2023-07-29T08:33:23;5.40;;;2.20;;
43628;SDS011;56545;48.224;11.678;2023-07-29T08:35:50;4.70;;;2.28;;
43628;SDS011;56545;48.224;11.678;2023-07-29T08:38:16;4.72;;;1.92;;
43628;SDS011;56545;48.224;11.678;2023-07-29T08:40:42;4.55;;;2.33;;
43628;SDS011;56545;48.224;11.678;2023-07-29T08:43:16;4.22;;;2.22;;
43628;SDS011;56545;48.224;11.678;2023-07-29T08:45:44;4.88;;;2.30;;
43628;SDS011;56545;48.224;11.678;2023-07-29T08:48:10;5.25;;;2.50;;
43628;SDS011;56545;48.224;11.678;2023-07-29T08:50:37;4.90;;;2.50;;
43628;SDS011;56545;48.224;11.678;2023-07-29T08:53:04;6.05;;;2.30;;
43628;SDS011;56545;48.224;11.678;2023-07-29T08:55:30;4.47;;;2.10;;
43628;SDS011;56545;48.224;11.678;2023-07-29T08:57:58;5.93;;;2.50;;
43628;SDS011;56545;48.224;11.678;2023-07-29T09:00:25;6.15;;;2.53;;
43628;SDS011;56545;48.224;11.678;2023-07-29T09:02:52;6.00;;;2.22;;
43628;SDS011;56545;48.224;11.678;2023-07-29T09:05:18;5.20;;;2.45;;
43628;SDS011;56545;48.224;11.678;2023-07-29T09:07:46;5.10;;;2.40;;
43628;SDS011;56545;48.224;11.678;2023-07-29T09:10:14;3.88;;;2.30;;
43628;SDS011;56545;48.224;11.678;2023-07-29T09:12:40;3.92;;;2.00;;
43628;SDS011;56545;48.224;11.678;2023-07-29T09:15:06;4.60;;;2.40;;
43628;SDS011;56545;48.224;11.678;2023-07-29T09:17:33;4.60;;;2.42;;
43628;SDS011;56545;48.224;11.678;2023-07-29T09:19:59;5.25;;;2.40;;
43628;SDS011;56545;48.224;11.678;2023-07-29T09:22:25;5.03;;;2.22;;
43628;SDS011;56545;48.224;11.678;2023-07-29T09:24:52;5.45;;;2.20;;
43628;SDS011;56545;48.224;11.678;2023-07-29T09:27:25;4.30;;;2.28;;
43628;SDS011;56545;48.224;11.678;2023-07-29T09:29:52;7.38;;;2.47;;
43628;SDS011;56545;48.224;11.678;2023-07-29T09:32:19;5.85;;;2.50;;
43628;SDS011;56545;48.224;11.678;2023-07-29T09:34:46;6.13;;;2.40;;
43628;SDS011;56545;48.224;11.678;2023-07-29T09:37:16;4.45;;;2.10;;
43628;SDS011;56545;48.224;11.678;2023-07-29T09:39:45;3.97;;;2.22;;
43628;SDS011;56545;48.224;11.678;2023-07-29T09:42:19;3.95;;;2.10;;
43628;SDS011;56545;48.224;11.678;2023-07-29T09:44:46;4.20;;;2.03;;
43628;SDS011;56545;48.224;11.678;2023-07-29T09:47:23;7.07;;;2.20;;
43628;SDS011;56545;48.224;11.678;2023-07-29T09:49:51;4.15;;;2.33;;
43628;SDS011;56545;48.224;11.678;2023-07-29T09:52:18;3.30;;;2.00;;
43628;SDS011;56545;48.224;11.678;2023-07-29T09:54:46;5.97;;;2.70;;
43628;SDS011;56545;48.224;11.678;2023-07-29T09:57:16;4.50;;;2.53;;
43628;SDS011;56545;48.224;11.678;2023-07-29T09:59:52;4.40;;;2.45;;
43628;SDS011;56545;48.224;11.678;2023-07-29T10:02:22;6.30;;;2.60;;
43628;SDS011;56545;48.224;11.678;2023-07-29T10:04:50;5.78;;;2.88;;
43628;SDS011;56545;48.224;11.678;2023-07-29T10:07:17;4.53;;;2.60;;
43628;SDS011;56545;48.224;11.678;2023-07-29T10:09:45;4.82;;;2.70;;
43628;SDS011;56545;48.224;11.678;2023-07-29T10:12:11;4.78;;;2.90;;
43628;SDS011;56545;48.224;11.678;2023-07-29T10:14:38;7.03;;;2.40;;
43628;SDS011;56545;48.224;11.678;2023-07-29T10:17:05;4.18;;;2.53;;
43628;SDS011;56545;48.224;11.678;2023-07-29T10:19:31;4.35;;;2.45;;
43628;SDS011;56545;48.224;11.678;2023-07-29T10:22:01;5.35;;;2.55;;
43628;SDS011;56545;48.224;11.678;2023-07-29T10:24:32;4.55;;;2.55;;
43628;SDS011;56545;48.224;11.678;2023-07-29T10:26:59;4.72;;;2.50;;
43628;SDS011;56545;48.224;11.678;2023-07-29T10:29:32;4.70;;;2.50;;
43628;SDS011;56545;48.224;11.678;2023-07-29T10:32:03;5.00;;;2.70;;
43628;SDS011;56545;48.224;11.678;2023-07-29T10:34:31;5.38;;;2.50;;
43628;SDS011;56545;48.224;11.678;2023-07-29T10:36:58;5.05;;;2.92;;
43628;SDS011;56545;48.224;11.678;2023-07-29T10:39:25;5.55;;;2.65;;
43628;SDS011;56545;48.224;11.678;2023-07-29T10:41:54;4.03;;;2.13;;
43628;SDS011;56545;48.224;11.678;2023-07-29T10:47:15;6.10;;;2.42;;
43628;SDS011;56545;48.224;11.678;2023-07-29T10:49:42;4.40;;;2.33;;
43628;SDS011;56545;48.224;11.678;2023-07-29T10:52:12;4.50;;;2.50;;
43628;SDS011;56545;48.224;11.678;2023-07-29T10:57:15;4.03;;;2.22;;
43628;SDS011;56545;48.224;11.678;2023-07-29T10:59:55;4.28;;;2.50;;
43628;SDS011;56545;48.224;11.678;2023-07-29T11:02:28;3.78;;;2.10;;
43628;SDS011;56545;48.224;11.678;2023-07-29T11:04:55;11.95;;;8.80;;
43628;SDS011;56545;48.224;11.678;2023-07-29T11:07:22;5.07;;;2.90;;
43628;SDS011;56545;48.224;11.678;2023-07-29T11:17:49;2.63;;;1.45;;
43628;SDS011;56545;48.224;11.678;2023-07-29T11:20:19;4.88;;;1.42;;
43628;SDS011;56545;48.224;11.678;2023-07-29T11:22:46;3.58;;;1.23;;
43628;SDS011;56545;48.224;11.678;2023-07-29T11:25:14;3.60;;;1.50;;
43628;SDS011;56545;48.224;11.678;2023-07-29T11:27:40;2.60;;;1.27;;
43628;SDS011;56545;48.224;11.678;2023-07-29T11:30:07;4.38;;;1.52;;
43628;SDS011;56545;48.224;11.678;2023-07-29T11:32:35;3.35;;;1.75;;
43628;SDS011;56545;48.224;11.678;2023-07-29T11:35:09;3.53;;;1.60;;
43628;SDS011;56545;48.224;11.678;2023-07-29T11:37:38;4.45;;;1.50;;
43628;SDS011;56545;48.224;11.678;2023-07-29T11:40:04;4.40;;;1.70;;
43628;SDS011;56545;48.224;11.678;2023-07-29T11:42:32;3.45;;;1.60;;
43628;SDS011;56545;48.224;11.678;2023-07-29T11:44:59;3.53;;;1.73;;
43628;SDS011;56545;48.224;11.678;2023-07-29T11:47:26;6.78;;;3.42;;
43628;SDS011;56545;48.224;11.678;2023-07-29T11:49:53;4.97;;;2.13;;
43628;SDS011;56545;48.224;11.678;2023-07-29T11:52:19;3.85;;;1.88;;
43628;SDS011;56545;48.224;11.678;2023-07-29T11:54:46;2.78;;;1.55;;
43628;SDS011;56545;48.224;11.678;2023-07-29T11:57:13;4.25;;;1.90;;
43628;SDS011;56545;48.224;11.678;2023-07-29T11:59:40;3.90;;;1.80;;
43628;SDS011;56545;48.224;11.678;2023-07-29T12:02:11;4.93;;;1.92;;
43628;SDS011;56545;48.224;11.678;2023-07-29T12:04:41;3.67;;;1.80;;
43628;SDS011;56545;48.224;11.678;2023-07-29T12:07:08;3.13;;;1.88;;
43628;SDS011;56545;48.224;11.678;2023-07-29T12:09:35;3.33;;;1.95;;
43628;SDS011;56545;48.224;11.678;2023-07-29T12:12:03;3.67;;;2.00;;
43628;SDS011;56545;48.224;11.678;2023-07-29T12:14:30;3.83;;;1.88;;
43628;SDS011;56545;48.224;11.678;2023-07-29T12:16:56;3.13;;;1.60;;
43628;SDS011;56545;48.224;11.678;2023-07-29T12:19:31;4.47;;;1.98;;
43628;SDS011;56545;48.224;11.678;2023-07-29T12:21:58;2.67;;;1.57;;
43628;SDS011;56545;48.224;11.678;2023-07-29T12:24:24;3.63;;;1.83;;
43628;SDS011;56545;48.224;11.678;2023-07-29T12:26:50;3.33;;;1.90;;
43628;SDS011;56545;48.224;11.678;2023-07-29T12:29:16;3.20;;;1.80;;
43628;SDS011;56545;48.224;11.678;2023-07-29T12:31:46;3.78;;;1.80;;
43628;SDS011;56545;48.224;11.678;2023-07-29T12:34:19;4.22;;;1.95;;
43628;SDS011;56545;48.224;11.678;2023-07-29T12:36:46;2.60;;;1.60;;
43628;SDS011;56545;48.224;11.678;2023-07-29T12:39:27;3.95;;;1.83;;
43628;SDS011;56545;48.224;11.678;2023-07-29T12:41:57;4.53;;;2.63;;
43628;SDS011;56545;48.224;11.678;2023-07-29T12:44:24;4.53;;;2.10;;
43628;SDS011;56545;48.224;11.678;2023-07-29T12:46:52;4.20;;;2.08;;
43628;SDS011;56545;48.224;11.678;2023-07-29T12:49:18;6.05;;;2.10;;
43628;SDS011;56545;48.224;11.678;2023-07-29T12:51:45;5.63;;;2.30;;
43628;SDS011;56545;48.224;11.678;2023-07-29T12:54:11;4.15;;;2.20;;
43628;SDS011;56545;48.224;11.678;2023-07-29T12:56:36;6.70;;;2.70;;
43628;SDS011;56545;48.224;11.678;2023-07-29T12:59:02;10.20;;;3.55;;
43628;SDS011;56545;48.224;11.678;2023-07-29T13:01:29;6.72;;;2.80;;
43628;SDS011;56545;48.224;11.678;2023-07-29T13:03:55;10.13;;;3.38;;
43628;SDS011;56545;48.224;11.678;2023-07-29T13:06:21;7.18;;;3.25;;
43628;SDS011;56545;48.224;11.678;2023-07-29T13:08:48;7.60;;;3.20;;
43628;SDS011;56545;48.224;11.678;2023-07-29T13:11:14;7.55;;;2.97;;
43628;SDS011;56545;48.224;11.678;2023-07-29T13:13:41;7.40;;;3.05;;
43628;SDS011;56545;48.224;11.678;2023-07-29T13:16:07;5.65;;;2.53;;
43628;SDS011;56545;48.224;11.678;2023-07-29T13:18:33;6.20;;;2.75;;
43628;SDS011;56545;48.224;11.678;2023-07-29T13:20:59;4.40;;;2.63;;
43628;SDS011;56545;48.224;11.678;2023-07-29T13:23:26;9.20;;;3.08;;
43628;SDS011;56545;48.224;11.678;2023-07-29T13:25:53;8.73;;;2.90;;
43628;SDS011;56545;48.224;11.678;2023-07-29T13:28:18;6.10;;;3.15;;
43628;SDS011;56545;48.224;11.678;2023-07-29T13:30:44;9.95;;;3.30;;
43628;SDS011;56545;48.224;11.678;2023-07-29T13:33:10;6.50;;;2.80;;
43628;SDS011;56545;48.224;11.678;2023-07-29T13:35:36;6.65;;;2.97;;
43628;SDS011;56545;48.224;11.678;2023-07-29T13:38:02;6.53;;;2.80;;
43628;SDS011;56545;48.224;11.678;2023-07-29T13:40:29;14.55;;;10.50;;
43628;SDS011;56545;48.224;11.678;2023-07-29T13:42:55;6.38;;;4.10;;
43628;SDS011;56545;48.224;11.678;2023-07-29T13:45:21;5.80;;;3.15;;
43628;SDS011;56545;48.224;11.678;2023-07-29T13:47:48;5.82;;;3.20;;
43628;SDS011;56545;48.224;11.678;2023-07-29T13:50:15;7.68;;;3.28;;
43628;SDS011;56545;48.224;11.678;2023-07-29T13:52:41;5.50;;;3.25;;
43628;SDS011;56545;48.224;11.678;2023-07-29T13:55:07;5.82;;;3.10;;
43628;SDS011;56545;48.224;11.678;2023-07-29T13:57:33;5.85;;;3.17;;
43628;SDS011;56545;48.224;11.678;2023-07-29T13:59:59;5.78;;;3.30;;
43628;SDS011;56545;48.224;11.678;2023-07-29T14:02:25;5.70;;;3.03;;
43628;SDS011;56545;48.224;11.678;2023-07-29T14:04:51;6.20;;;2.95;;
43628;SDS011;56545;48.224;11.678;2023-07-29T14:07:17;7.35;;;3.60;;
43628;SDS011;56545;48.224;11.678;2023-07-29T14:09:43;5.40;;;3.35;;
43628;SDS011;56545;48.224;11.678;2023-07-29T14:12:09;6.40;;;3.88;;
43628;SDS011;56545;48.224;11.678;2023-07-29T14:14:37;5.82;;;3.70;;
43628;SDS011;56545;48.224;11.678;2023-07-29T14:17:03;5.95;;;3.30;;
43628;SDS011;56545;48.224;11.678;2023-07-29T14:19:30;5.70;;;3.17;;
43628;SDS011;56545;48.224;11.678;2023-07-29T14:21:56;6.00;;;3.50;;
43628;SDS011;56545;48.224;11.678;2023-07-29T14:24:22;8.73;;;3.60;;
43628;SDS011;56545;48.224;11.678;2023-07-29T14:26:48;6.25;;;3.38;;
43628;SDS011;56545;48.224;11.678;2023-07-29T14:29:14;7.90;;;3.15;;
43628;SDS011;56545;48.224;11.678;2023-07-29T14:31:40;6.57;;;2.83;;
43628;SDS011;56545;48.224;11.678;2023-07-29T14:34:06;7.00;;;2.92;;
43628;SDS011;56545;48.224;11.678;2023-07-29T14:36:33;5.97;;;3.20;;
43628;SDS011;56545;48.224;11.678;2023-07-29T14:38:59;6.25;;;3.38;;
43628;SDS011;56545;48.224;11.678;2023-07-29T14:41:25;8.20;;;5.57;;
43628;SDS011;56545;48.224;11.678;2023-07-29T14:43:51;9.88;;;7.40;;
43628;SDS011;56545;48.224;11.678;2023-07-29T14:46:17;9.93;;;6.22;;
43628;SDS011;56545;48.224;11.678;2023-07-29T14:48:43;7.80;;;4.40;;
43628;SDS011;56545;48.224;11.678;2023-07-29T14:51:10;5.68;;;3.40;;
43628;SDS011;56545;48.224;11.678;2023-07-29T14:53:36;8.02;;;5.50;;
43628;SDS011;56545;48.224;11.678;2023-07-29T14:56:02;6.95;;;3.25;;